sensor_id;sensor_type;location;lat;lon;timestamp;P1;durP1;ratioP1;P2;durP2;ratioP2
10811;SDS011;5458;51.496;7.334;2023-04-15T00:00:53;9.38;;;8.48;;
10811;SDS011;5458;51.496;7.334;2023-04-15T00:03:19;12.48;;;9.10;;
10811;SDS011;5458;51.496;7.334;2023-04-15T00:05:45;10.95;;;8.20;;
10811;SDS011;5458;51.496;7.334;2023-04-15T00:08:10;10.43;;;8.20;;
10811;SDS011;5458;51.496;7.334;2023-04-15T00:10:36;9.82;;;8.82;;
10811;SDS011;5458;51.496;7.334;2023-04-15T00:13:02;11.57;;;9.15;;
10811;SDS011;5458;51.496;7.334;2023-04-15T00:15:28;11.27;;;9.27;;
10811;SDS011;5458;51.496;7.334;2023-04-15T00:17:54;11.85;;;9.60;;
10811;SDS011;5458;51.496;7.334;2023-04-15T00:20:19;9.90;;;8.90;;
10811;SDS011;5458;51.496;7.334;2023-04-15T00:22:45;12.27;;;9.77;;
10811;SDS011;5458;51.496;7.334;2023-04-15T00:25:11;12.95;;;9.60;;
10811;SDS011;5458;51.496;7.334;2023-04-15T00:27:37;12.13;;;8.32;;
10811;SDS011;5458;51.496;7.334;2023-04-15T00:30:02;12.43;;;8.98;;
10811;SDS011;5458;51.496;7.334;2023-04-15T00:32:29;12.07;;;8.27;;
10811;SDS011;5458;51.496;7.334;2023-04-15T00:34:55;11.90;;;8.68;;
10811;SDS011;5458;51.496;7.334;2023-04-15T00:37:21;10.15;;;9.13;;
10811;SDS011;5458;51.496;7.334;2023-04-15T00:39:47;9.57;;;8.38;;
10811;SDS011;5458;51.496;7.334;2023-04-15T00:42:13;10.25;;;9.10;;
10811;SDS011;5458;51.496;7.334;2023-04-15T00:44:39;11.88;;;9.27;;
10811;SDS011;5458;51.496;7.334;2023-04-15T00:47:05;10.73;;;9.05;;
10811;SDS011;5458;51.496;7.334;2023-04-15T00:49:31;14.15;;;9.25;;
10811;SDS011;5458;51.496;7.334;2023-04-15T00:51:57;11.30;;;8.70;;
10811;SDS011;5458;51.496;7.334;2023-04-15T00:54:22;10.55;;;8.88;;
10811;SDS011;5458;51.496;7.334;2023-04-15T00:56:48;10.65;;;9.50;;
10811;SDS011;5458;51.496;7.334;2023-04-15T00:59:15;10.73;;;9.70;;
10811;SDS011;5458;51.496;7.334;2023-04-15T01:01:42;11.75;;;9.40;;
10811;SDS011;5458;51.496;7.334;2023-04-15T01:04:09;12.35;;;9.20;;
10811;SDS011;5458;51.496;7.334;2023-04-15T01:06:36;19.80;;;9.60;;
10811;SDS011;5458;51.496;7.334;2023-04-15T01:09:01;9.43;;;8.40;;
10811;SDS011;5458;51.496;7.334;2023-04-15T01:11:27;13.05;;;8.98;;
10811;SDS011;5458;51.496;7.334;2023-04-15T01:13:55;13.23;;;9.75;;
10811;SDS011;5458;51.496;7.334;2023-04-15T01:16:22;11.50;;;10.10;;
10811;SDS011;5458;51.496;7.334;2023-04-15T01:18:48;11.02;;;9.40;;
10811;SDS011;5458;51.496;7.334;2023-04-15T01:21:14;11.75;;;9.80;;
10811;SDS011;5458;51.496;7.334;2023-04-15T01:23:39;11.88;;;9.98;;
10811;SDS011;5458;51.496;7.334;2023-04-15T01:26:05;12.40;;;9.73;;
10811;SDS011;5458;51.496;7.334;2023-04-15T01:28:33;12.57;;;9.13;;
10811;SDS011;5458;51.496;7.334;2023-04-15T01:33:35;15.15;;;9.82;;
10811;SDS011;5458;51.496;7.334;2023-04-15T01:36:02;12.15;;;10.45;;
10811;SDS011;5458;51.496;7.334;2023-04-15T01:38:28;14.05;;;11.02;;
10811;SDS011;5458;51.496;7.334;2023-04-15T01:40:55;15.10;;;10.98;;
10811;SDS011;5458;51.496;7.334;2023-04-15T01:43:21;17.17;;;11.23;;
10811;SDS011;5458;51.496;7.334;2023-04-15T01:45:47;14.05;;;11.02;;
10811;SDS011;5458;51.496;7.334;2023-04-15T01:48:12;14.38;;;11.30;;
10811;SDS011;5458;51.496;7.334;2023-04-15T01:50:38;11.82;;;10.55;;
10811;SDS011;5458;51.496;7.334;2023-04-15T01:53:04;12.13;;;10.65;;
10811;SDS011;5458;51.496;7.334;2023-04-15T01:55:29;11.98;;;10.27;;
10811;SDS011;5458;51.496;7.334;2023-04-15T01:57:55;12.27;;;9.98;;
10811;SDS011;5458;51.496;7.334;2023-04-15T02:00:21;11.82;;;10.60;;
10811;SDS011;5458;51.496;7.334;2023-04-15T02:02:47;12.77;;;11.20;;
10811;SDS011;5458;51.496;7.334;2023-04-15T02:05:13;16.52;;;11.10;;
10811;SDS011;5458;51.496;7.334;2023-04-15T02:07:40;12.73;;;10.75;;
10811;SDS011;5458;51.496;7.334;2023-04-15T02:10:09;13.68;;;10.18;;
10811;SDS011;5458;51.496;7.334;2023-04-15T02:12:35;14.75;;;11.43;;
10811;SDS011;5458;51.496;7.334;2023-04-15T02:15:01;12.90;;;10.63;;
10811;SDS011;5458;51.496;7.334;2023-04-15T02:17:27;12.15;;;10.93;;
10811;SDS011;5458;51.496;7.334;2023-04-15T02:19:54;15.35;;;11.15;;
10811;SDS011;5458;51.496;7.334;2023-04-15T02:22:20;15.20;;;11.50;;
10811;SDS011;5458;51.496;7.334;2023-04-15T02:24:46;13.63;;;11.43;;
10811;SDS011;5458;51.496;7.334;2023-04-15T02:27:15;11.40;;;10.20;;
10811;SDS011;5458;51.496;7.334;2023-04-15T02:29:42;14.15;;;11.35;;
10811;SDS011;5458;51.496;7.334;2023-04-15T02:32:08;12.55;;;10.68;;
10811;SDS011;5458;51.496;7.334;2023-04-15T02:34:35;12.15;;;10.85;;
10811;SDS011;5458;51.496;7.334;2023-04-15T02:37:05;13.57;;;11.50;;
10811;SDS011;5458;51.496;7.334;2023-04-15T02:39:31;13.68;;;11.43;;
10811;SDS011;5458;51.496;7.334;2023-04-15T02:41:57;15.98;;;12.23;;
10811;SDS011;5458;51.496;7.334;2023-04-15T02:44:24;13.73;;;11.32;;
10811;SDS011;5458;51.496;7.334;2023-04-15T02:46:49;14.27;;;11.50;;
10811;SDS011;5458;51.496;7.334;2023-04-15T02:49:16;16.90;;;11.10;;
10811;SDS011;5458;51.496;7.334;2023-04-15T02:51:42;15.90;;;11.65;;
10811;SDS011;5458;51.496;7.334;2023-04-15T02:54:11;11.88;;;10.25;;
10811;SDS011;5458;51.496;7.334;2023-04-15T02:56:38;13.35;;;10.88;;
10811;SDS011;5458;51.496;7.334;2023-04-15T02:59:04;12.18;;;10.65;;
10811;SDS011;5458;51.496;7.334;2023-04-15T03:01:30;11.80;;;10.15;;
10811;SDS011;5458;51.496;7.334;2023-04-15T03:03:55;12.48;;;10.82;;
10811;SDS011;5458;51.496;7.334;2023-04-15T03:06:21;14.35;;;10.55;;
10811;SDS011;5458;51.496;7.334;2023-04-15T03:08:48;11.77;;;10.57;;
10811;SDS011;5458;51.496;7.334;2023-04-15T03:11:14;16.15;;;11.35;;
10811;SDS011;5458;51.496;7.334;2023-04-15T03:13:41;11.35;;;9.70;;
10811;SDS011;5458;51.496;7.334;2023-04-15T03:16:07;10.90;;;9.82;;
10811;SDS011;5458;51.496;7.334;2023-04-15T03:18:33;11.95;;;10.35;;
10811;SDS011;5458;51.496;7.334;2023-04-15T03:20:59;15.05;;;11.07;;
10811;SDS011;5458;51.496;7.334;2023-04-15T03:23:25;12.65;;;10.52;;
10811;SDS011;5458;51.496;7.334;2023-04-15T03:25:51;13.88;;;10.93;;
10811;SDS011;5458;51.496;7.334;2023-04-15T03:28:18;10.88;;;9.77;;
10811;SDS011;5458;51.496;7.334;2023-04-15T03:30:44;12.32;;;11.02;;
10811;SDS011;5458;51.496;7.334;2023-04-15T03:33:10;11.30;;;10.30;;
10811;SDS011;5458;51.496;7.334;2023-04-15T03:35:36;10.73;;;9.63;;
10811;SDS011;5458;51.496;7.334;2023-04-15T03:38:02;12.88;;;9.90;;
10811;SDS011;5458;51.496;7.334;2023-04-15T03:40:27;12.35;;;9.88;;
10811;SDS011;5458;51.496;7.334;2023-04-15T03:42:53;11.70;;;10.50;;
10811;SDS011;5458;51.496;7.334;2023-04-15T03:45:19;12.18;;;10.40;;
10811;SDS011;5458;51.496;7.334;2023-04-15T03:47:45;10.98;;;9.65;;
10811;SDS011;5458;51.496;7.334;2023-04-15T03:50:11;11.05;;;9.85;;
10811;SDS011;5458;51.496;7.334;2023-04-15T03:52:36;13.50;;;10.27;;
10811;SDS011;5458;51.496;7.334;2023-04-15T03:55:02;12.15;;;9.82;;
10811;SDS011;5458;51.496;7.334;2023-04-15T03:57:28;13.25;;;10.00;;
10811;SDS011;5458;51.496;7.334;2023-04-15T03:59:53;11.05;;;9.95;;
10811;SDS011;5458;51.496;7.334;2023-04-15T04:02:19;10.82;;;9.82;;
10811;SDS011;5458;51.496;7.334;2023-04-15T04:04:46;11.63;;;10.43;;
10811;SDS011;5458;51.496;7.334;2023-04-15T04:07:15;11.57;;;10.38;;
10811;SDS011;5458;51.496;7.334;2023-04-15T04:09:43;13.77;;;10.10;;
10811;SDS011;5458;51.496;7.334;2023-04-15T04:12:08;13.05;;;10.98;;
10811;SDS011;5458;51.496;7.334;2023-04-15T04:14:34;10.63;;;9.52;;
10811;SDS011;5458;51.496;7.334;2023-04-15T04:17:00;11.52;;;8.75;;
10811;SDS011;5458;51.496;7.334;2023-04-15T04:19:25;11.15;;;9.85;;
10811;SDS011;5458;51.496;7.334;2023-04-15T04:21:51;11.05;;;10.00;;
10811;SDS011;5458;51.496;7.334;2023-04-15T04:24:17;11.20;;;10.05;;
10811;SDS011;5458;51.496;7.334;2023-04-15T04:26:43;11.68;;;10.48;;
10811;SDS011;5458;51.496;7.334;2023-04-15T04:29:08;12.60;;;10.75;;
10811;SDS011;5458;51.496;7.334;2023-04-15T04:31:34;11.63;;;10.10;;
10811;SDS011;5458;51.496;7.334;2023-04-15T04:34:00;12.52;;;10.13;;
10811;SDS011;5458;51.496;7.334;2023-04-15T04:36:26;12.40;;;9.80;;
10811;SDS011;5458;51.496;7.334;2023-04-15T04:38:51;12.73;;;10.65;;
10811;SDS011;5458;51.496;7.334;2023-04-15T04:41:17;11.60;;;10.40;;
10811;SDS011;5458;51.496;7.334;2023-04-15T04:43:42;12.57;;;11.27;;
10811;SDS011;5458;51.496;7.334;2023-04-15T04:46:08;12.40;;;10.85;;
10811;SDS011;5458;51.496;7.334;2023-04-15T04:48:34;14.27;;;12.23;;
10811;SDS011;5458;51.496;7.334;2023-04-15T04:51:00;15.75;;;11.18;;
10811;SDS011;5458;51.496;7.334;2023-04-15T04:53:26;14.20;;;11.32;;
10811;SDS011;5458;51.496;7.334;2023-04-15T04:55:52;13.77;;;11.73;;
10811;SDS011;5458;51.496;7.334;2023-04-15T04:58:17;13.45;;;10.63;;
10811;SDS011;5458;51.496;7.334;2023-04-15T05:00:43;13.65;;;12.20;;
10811;SDS011;5458;51.496;7.334;2023-04-15T05:03:09;12.38;;;10.95;;
10811;SDS011;5458;51.496;7.334;2023-04-15T05:05:35;12.40;;;10.88;;
10811;SDS011;5458;51.496;7.334;2023-04-15T05:08:03;13.57;;;12.15;;
10811;SDS011;5458;51.496;7.334;2023-04-15T05:10:29;14.27;;;11.98;;
10811;SDS011;5458;51.496;7.334;2023-04-15T05:12:55;12.07;;;10.57;;
10811;SDS011;5458;51.496;7.334;2023-04-15T05:15:21;12.95;;;10.93;;
10811;SDS011;5458;51.496;7.334;2023-04-15T05:17:47;14.05;;;11.45;;
10811;SDS011;5458;51.496;7.334;2023-04-15T05:20:12;15.60;;;12.32;;
10811;SDS011;5458;51.496;7.334;2023-04-15T05:22:38;13.63;;;12.05;;
10811;SDS011;5458;51.496;7.334;2023-04-15T05:25:04;16.77;;;12.20;;
10811;SDS011;5458;51.496;7.334;2023-04-15T05:27:29;12.43;;;11.00;;
10811;SDS011;5458;51.496;7.334;2023-04-15T05:29:55;12.40;;;11.18;;
10811;SDS011;5458;51.496;7.334;2023-04-15T05:32:21;16.20;;;12.23;;
10811;SDS011;5458;51.496;7.334;2023-04-15T05:34:47;15.27;;;11.93;;
10811;SDS011;5458;51.496;7.334;2023-04-15T05:37:12;15.23;;;11.82;;
10811;SDS011;5458;51.496;7.334;2023-04-15T05:39:38;14.68;;;13.18;;
10811;SDS011;5458;51.496;7.334;2023-04-15T05:42:03;14.65;;;11.63;;
10811;SDS011;5458;51.496;7.334;2023-04-15T05:44:30;13.07;;;11.60;;
10811;SDS011;5458;51.496;7.334;2023-04-15T05:46:55;14.23;;;12.73;;
10811;SDS011;5458;51.496;7.334;2023-04-15T05:49:21;13.38;;;11.98;;
10811;SDS011;5458;51.496;7.334;2023-04-15T05:51:47;14.60;;;12.77;;
10811;SDS011;5458;51.496;7.334;2023-04-15T05:54:13;13.50;;;11.68;;
10811;SDS011;5458;51.496;7.334;2023-04-15T05:56:39;15.52;;;12.88;;
10811;SDS011;5458;51.496;7.334;2023-04-15T05:59:04;14.65;;;12.93;;
10811;SDS011;5458;51.496;7.334;2023-04-15T06:01:30;13.90;;;12.50;;
10811;SDS011;5458;51.496;7.334;2023-04-15T06:03:57;15.63;;;12.75;;
10811;SDS011;5458;51.496;7.334;2023-04-15T06:06:22;13.57;;;12.25;;
10811;SDS011;5458;51.496;7.334;2023-04-15T06:08:48;14.18;;;12.65;;
10811;SDS011;5458;51.496;7.334;2023-04-15T06:11:13;15.43;;;12.90;;
10811;SDS011;5458;51.496;7.334;2023-04-15T06:13:39;13.82;;;12.27;;
10811;SDS011;5458;51.496;7.334;2023-04-15T06:16:05;14.52;;;12.25;;
10811;SDS011;5458;51.496;7.334;2023-04-15T06:18:31;16.40;;;13.05;;
10811;SDS011;5458;51.496;7.334;2023-04-15T06:20:57;13.85;;;12.32;;
10811;SDS011;5458;51.496;7.334;2023-04-15T06:23:23;14.18;;;11.90;;
10811;SDS011;5458;51.496;7.334;2023-04-15T06:25:48;15.43;;;13.50;;
10811;SDS011;5458;51.496;7.334;2023-04-15T06:28:14;14.07;;;11.80;;
10811;SDS011;5458;51.496;7.334;2023-04-15T06:30:40;14.32;;;12.82;;
10811;SDS011;5458;51.496;7.334;2023-04-15T06:33:06;14.10;;;12.60;;
10811;SDS011;5458;51.496;7.334;2023-04-15T06:35:31;17.48;;;12.88;;
10811;SDS011;5458;51.496;7.334;2023-04-15T06:37:57;19.38;;;14.13;;
10811;SDS011;5458;51.496;7.334;2023-04-15T06:40:23;16.85;;;12.93;;
10811;SDS011;5458;51.496;7.334;2023-04-15T06:42:48;14.77;;;13.25;;
10811;SDS011;5458;51.496;7.334;2023-04-15T06:45:14;14.93;;;12.65;;
10811;SDS011;5458;51.496;7.334;2023-04-15T06:47:40;15.15;;;13.48;;
10811;SDS011;5458;51.496;7.334;2023-04-15T06:50:06;16.08;;;13.32;;
10811;SDS011;5458;51.496;7.334;2023-04-15T06:52:34;14.55;;;12.85;;
10811;SDS011;5458;51.496;7.334;2023-04-15T06:55:00;14.60;;;13.07;;
10811;SDS011;5458;51.496;7.334;2023-04-15T06:57:26;14.82;;;13.15;;
10811;SDS011;5458;51.496;7.334;2023-04-15T06:59:53;17.10;;;14.45;;
10811;SDS011;5458;51.496;7.334;2023-04-15T07:02:19;15.98;;;13.55;;
10811;SDS011;5458;51.496;7.334;2023-04-15T07:04:45;15.02;;;13.43;;
10811;SDS011;5458;51.496;7.334;2023-04-15T07:15:22;15.35;;;13.65;;
10811;SDS011;5458;51.496;7.334;2023-04-15T07:17:48;15.38;;;13.77;;
10811;SDS011;5458;51.496;7.334;2023-04-15T07:20:13;18.95;;;14.68;;
10811;SDS011;5458;51.496;7.334;2023-04-15T07:26:01;14.75;;;13.25;;
10811;SDS011;5458;51.496;7.334;2023-04-15T07:28:28;19.25;;;14.23;;
10811;SDS011;5458;51.496;7.334;2023-04-15T07:30:54;20.15;;;15.57;;
10811;SDS011;5458;51.496;7.334;2023-04-15T07:33:21;19.00;;;16.00;;
10811;SDS011;5458;51.496;7.334;2023-04-15T07:38:35;17.40;;;14.70;;
10811;SDS011;5458;51.496;7.334;2023-04-15T07:41:01;18.00;;;15.15;;
10811;SDS011;5458;51.496;7.334;2023-04-15T07:43:26;17.05;;;15.00;;
10811;SDS011;5458;51.496;7.334;2023-04-15T07:45:52;15.13;;;13.20;;
10811;SDS011;5458;51.496;7.334;2023-04-15T07:48:17;19.08;;;14.52;;
10811;SDS011;5458;51.496;7.334;2023-04-15T07:50:43;13.70;;;12.15;;
10811;SDS011;5458;51.496;7.334;2023-04-15T07:53:09;15.60;;;13.15;;
10811;SDS011;5458;51.496;7.334;2023-04-15T07:55:34;15.57;;;12.90;;
10811;SDS011;5458;51.496;7.334;2023-04-15T07:58:00;15.27;;;11.70;;
10811;SDS011;5458;51.496;7.334;2023-04-15T08:00:25;14.18;;;11.15;;
10811;SDS011;5458;51.496;7.334;2023-04-15T08:02:52;12.27;;;11.07;;
10811;SDS011;5458;51.496;7.334;2023-04-15T08:05:18;12.80;;;11.43;;
10811;SDS011;5458;51.496;7.334;2023-04-15T08:07:44;11.52;;;10.13;;
10811;SDS011;5458;51.496;7.334;2023-04-15T08:10:10;11.32;;;10.15;;
10811;SDS011;5458;51.496;7.334;2023-04-15T08:12:36;10.52;;;9.40;;
10811;SDS011;5458;51.496;7.334;2023-04-15T08:15:02;10.98;;;9.80;;
10811;SDS011;5458;51.496;7.334;2023-04-15T08:17:28;9.93;;;7.88;;
10811;SDS011;5458;51.496;7.334;2023-04-15T08:19:54;9.07;;;8.02;;
10811;SDS011;5458;51.496;7.334;2023-04-15T08:22:19;10.40;;;8.68;;
10811;SDS011;5458;51.496;7.334;2023-04-15T08:24:45;8.73;;;7.53;;
10811;SDS011;5458;51.496;7.334;2023-04-15T08:27:11;9.93;;;8.63;;
10811;SDS011;5458;51.496;7.334;2023-04-15T08:29:37;11.23;;;9.38;;
10811;SDS011;5458;51.496;7.334;2023-04-15T08:32:03;10.63;;;9.52;;
10811;SDS011;5458;51.496;7.334;2023-04-15T08:34:28;9.25;;;8.25;;
10811;SDS011;5458;51.496;7.334;2023-04-15T08:36:54;9.15;;;8.30;;
10811;SDS011;5458;51.496;7.334;2023-04-15T08:39:20;8.00;;;7.30;;
10811;SDS011;5458;51.496;7.334;2023-04-15T08:41:46;8.30;;;7.15;;
10811;SDS011;5458;51.496;7.334;2023-04-15T08:44:33;7.97;;;7.18;;
10811;SDS011;5458;51.496;7.334;2023-04-15T08:47:00;7.32;;;6.63;;
10811;SDS011;5458;51.496;7.334;2023-04-15T08:49:26;6.88;;;6.28;;
10811;SDS011;5458;51.496;7.334;2023-04-15T08:51:53;7.32;;;6.20;;
10811;SDS011;5458;51.496;7.334;2023-04-15T08:54:22;5.70;;;5.18;;
10811;SDS011;5458;51.496;7.334;2023-04-15T08:56:48;6.25;;;5.63;;
10811;SDS011;5458;51.496;7.334;2023-04-15T08:59:14;6.15;;;5.60;;
10811;SDS011;5458;51.496;7.334;2023-04-15T09:01:40;6.97;;;6.32;;
10811;SDS011;5458;51.496;7.334;2023-04-15T09:04:06;8.30;;;6.40;;
10811;SDS011;5458;51.496;7.334;2023-04-15T09:06:32;7.55;;;5.95;;
10811;SDS011;5458;51.496;7.334;2023-04-15T09:08:58;6.90;;;6.28;;
10811;SDS011;5458;51.496;7.334;2023-04-15T09:11:24;9.27;;;7.50;;
10811;SDS011;5458;51.496;7.334;2023-04-15T09:13:50;8.55;;;6.32;;
10811;SDS011;5458;51.496;7.334;2023-04-15T09:16:16;7.63;;;5.90;;
10811;SDS011;5458;51.496;7.334;2023-04-15T09:18:42;7.28;;;6.53;;
10811;SDS011;5458;51.496;7.334;2023-04-15T09:21:14;7.93;;;7.22;;
10811;SDS011;5458;51.496;7.334;2023-04-15T09:23:53;7.72;;;6.72;;
10811;SDS011;5458;51.496;7.334;2023-04-15T09:26:38;7.70;;;7.00;;
10811;SDS011;5458;51.496;7.334;2023-04-15T09:29:10;7.22;;;6.63;;
10811;SDS011;5458;51.496;7.334;2023-04-15T09:31:39;8.32;;;7.55;;
10811;SDS011;5458;51.496;7.334;2023-04-15T09:34:06;8.40;;;7.43;;
10811;SDS011;5458;51.496;7.334;2023-04-15T09:36:37;8.02;;;7.22;;
10811;SDS011;5458;51.496;7.334;2023-04-15T09:39:14;8.60;;;7.70;;
10811;SDS011;5458;51.496;7.334;2023-04-15T09:41:40;8.93;;;7.32;;
10811;SDS011;5458;51.496;7.334;2023-04-15T09:44:06;8.48;;;7.78;;
10811;SDS011;5458;51.496;7.334;2023-04-15T09:46:44;7.72;;;6.93;;
10811;SDS011;5458;51.496;7.334;2023-04-15T09:49:10;8.07;;;7.35;;
10811;SDS011;5458;51.496;7.334;2023-04-15T09:51:37;8.23;;;7.40;;
10811;SDS011;5458;51.496;7.334;2023-04-15T09:54:03;8.20;;;7.40;;
10811;SDS011;5458;51.496;7.334;2023-04-15T09:56:36;8.93;;;8.13;;
10811;SDS011;5458;51.496;7.334;2023-04-15T09:59:06;10.38;;;8.43;;
10811;SDS011;5458;51.496;7.334;2023-04-15T10:01:32;10.15;;;8.77;;
10811;SDS011;5458;51.496;7.334;2023-04-15T10:04:01;8.27;;;7.50;;
10811;SDS011;5458;51.496;7.334;2023-04-15T10:06:28;9.57;;;8.57;;
10811;SDS011;5458;51.496;7.334;2023-04-15T10:08:54;9.65;;;8.52;;
10811;SDS011;5458;51.496;7.334;2023-04-15T10:11:21;8.70;;;7.78;;
10811;SDS011;5458;51.496;7.334;2023-04-15T10:13:48;9.63;;;8.05;;
10811;SDS011;5458;51.496;7.334;2023-04-15T10:16:17;8.82;;;7.70;;
10811;SDS011;5458;51.496;7.334;2023-04-15T10:18:45;10.18;;;7.30;;
10811;SDS011;5458;51.496;7.334;2023-04-15T10:21:12;7.90;;;7.18;;
10811;SDS011;5458;51.496;7.334;2023-04-15T10:23:42;9.07;;;7.22;;
10811;SDS011;5458;51.496;7.334;2023-04-15T10:26:09;7.93;;;7.13;;
10811;SDS011;5458;51.496;7.334;2023-04-15T10:28:37;8.90;;;7.15;;
10811;SDS011;5458;51.496;7.334;2023-04-15T10:31:02;8.93;;;7.80;;
10811;SDS011;5458;51.496;7.334;2023-04-15T10:33:29;10.63;;;9.02;;
10811;SDS011;5458;51.496;7.334;2023-04-15T10:35:56;8.32;;;7.50;;
10811;SDS011;5458;51.496;7.334;2023-04-15T10:38:41;9.27;;;8.38;;
10811;SDS011;5458;51.496;7.334;2023-04-15T10:43:44;10.57;;;8.52;;
10811;SDS011;5458;51.496;7.334;2023-04-15T10:46:33;9.45;;;8.55;;
10811;SDS011;5458;51.496;7.334;2023-04-15T10:49:09;8.80;;;7.93;;
10811;SDS011;5458;51.496;7.334;2023-04-15T10:51:51;7.45;;;6.75;;
10811;SDS011;5458;51.496;7.334;2023-04-15T10:57:36;7.85;;;7.05;;
10811;SDS011;5458;51.496;7.334;2023-04-15T11:05:05;8.60;;;6.60;;
10811;SDS011;5458;51.496;7.334;2023-04-15T11:07:55;8.88;;;7.97;;
10811;SDS011;5458;51.496;7.334;2023-04-15T11:12:50;8.80;;;6.30;;
10811;SDS011;5458;51.496;7.334;2023-04-15T11:15:40;7.20;;;6.15;;
10811;SDS011;5458;51.496;7.334;2023-04-15T11:18:20;6.57;;;5.97;;
10811;SDS011;5458;51.496;7.334;2023-04-15T11:23:26;7.80;;;6.07;;
10811;SDS011;5458;51.496;7.334;2023-04-15T11:25:56;7.75;;;6.95;;
10811;SDS011;5458;51.496;7.334;2023-04-15T11:28:29;7.10;;;6.40;;
10811;SDS011;5458;51.496;7.334;2023-04-15T11:30:56;7.10;;;6.35;;
10811;SDS011;5458;51.496;7.334;2023-04-15T11:33:22;7.07;;;6.43;;
10811;SDS011;5458;51.496;7.334;2023-04-15T11:35:49;6.97;;;6.00;;
10811;SDS011;5458;51.496;7.334;2023-04-15T11:38:17;7.35;;;6.65;;
10811;SDS011;5458;51.496;7.334;2023-04-15T11:40:43;7.68;;;6.75;;
10811;SDS011;5458;51.496;7.334;2023-04-15T11:43:13;6.57;;;5.97;;
10811;SDS011;5458;51.496;7.334;2023-04-15T11:45:47;7.38;;;6.68;;
10811;SDS011;5458;51.496;7.334;2023-04-15T11:48:15;7.90;;;6.47;;
10811;SDS011;5458;51.496;7.334;2023-04-15T11:50:41;7.60;;;6.90;;
10811;SDS011;5458;51.496;7.334;2023-04-15T11:53:07;7.82;;;7.07;;
10811;SDS011;5458;51.496;7.334;2023-04-15T11:55:41;7.35;;;6.40;;
10811;SDS011;5458;51.496;7.334;2023-04-15T11:58:16;8.27;;;5.82;;
10811;SDS011;5458;51.496;7.334;2023-04-15T12:00:47;7.18;;;6.43;;
10811;SDS011;5458;51.496;7.334;2023-04-15T12:11:15;6.75;;;6.15;;
10811;SDS011;5458;51.496;7.334;2023-04-15T12:13:47;7.50;;;6.75;;
10811;SDS011;5458;51.496;7.334;2023-04-15T12:16:17;7.35;;;6.55;;
10811;SDS011;5458;51.496;7.334;2023-04-15T12:18:46;6.60;;;6.00;;
10811;SDS011;5458;51.496;7.334;2023-04-15T12:21:20;7.28;;;6.57;;
10811;SDS011;5458;51.496;7.334;2023-04-15T12:23:54;7.45;;;6.28;;
10811;SDS011;5458;51.496;7.334;2023-04-15T12:26:28;7.07;;;6.30;;
10811;SDS011;5458;51.496;7.334;2023-04-15T12:29:01;7.80;;;7.07;;
10811;SDS011;5458;51.496;7.334;2023-04-15T12:31:26;7.57;;;6.20;;
10811;SDS011;5458;51.496;7.334;2023-04-15T12:33:56;6.90;;;6.30;;
10811;SDS011;5458;51.496;7.334;2023-04-15T12:36:23;6.78;;;6.18;;
10811;SDS011;5458;51.496;7.334;2023-04-15T12:38:49;6.55;;;5.85;;
10811;SDS011;5458;51.496;7.334;2023-04-15T12:41:15;6.93;;;6.28;;
10811;SDS011;5458;51.496;7.334;2023-04-15T12:43:43;7.38;;;6.50;;
10811;SDS011;5458;51.496;7.334;2023-04-15T12:46:09;7.05;;;6.28;;
10811;SDS011;5458;51.496;7.334;2023-04-15T12:48:35;6.72;;;5.55;;
10811;SDS011;5458;51.496;7.334;2023-04-15T12:51:00;6.32;;;5.47;;
10811;SDS011;5458;51.496;7.334;2023-04-15T12:53:26;5.70;;;5.10;;
10811;SDS011;5458;51.496;7.334;2023-04-15T12:55:52;6.22;;;5.63;;
10811;SDS011;5458;51.496;7.334;2023-04-15T12:58:18;5.47;;;5.00;;
10811;SDS011;5458;51.496;7.334;2023-04-15T13:00:44;6.50;;;5.20;;
10811;SDS011;5458;51.496;7.334;2023-04-15T13:03:09;5.85;;;5.32;;
10811;SDS011;5458;51.496;7.334;2023-04-15T13:05:35;4.70;;;4.30;;
10811;SDS011;5458;51.496;7.334;2023-04-15T13:08:03;6.00;;;4.45;;
10811;SDS011;5458;51.496;7.334;2023-04-15T13:10:30;5.55;;;4.68;;
10811;SDS011;5458;51.496;7.334;2023-04-15T13:12:56;5.45;;;4.90;;
10811;SDS011;5458;51.496;7.334;2023-04-15T13:15:21;5.03;;;4.63;;
10811;SDS011;5458;51.496;7.334;2023-04-15T13:30:31;6.05;;;4.80;;
10811;SDS011;5458;51.496;7.334;2023-04-15T13:32:57;5.22;;;4.15;;
10811;SDS011;5458;51.496;7.334;2023-04-15T13:35:22;4.95;;;4.18;;
10811;SDS011;5458;51.496;7.334;2023-04-15T13:37:48;5.13;;;4.63;;
10811;SDS011;5458;51.496;7.334;2023-04-15T13:40:13;5.13;;;4.63;;
10811;SDS011;5458;51.496;7.334;2023-04-15T13:42:39;4.93;;;4.50;;
10811;SDS011;5458;51.496;7.334;2023-04-15T13:45:06;5.72;;;4.78;;
10811;SDS011;5458;51.496;7.334;2023-04-15T13:47:32;5.10;;;4.60;;
10811;SDS011;5458;51.496;7.334;2023-04-15T13:49:58;5.20;;;4.45;;
10811;SDS011;5458;51.496;7.334;2023-04-15T13:52:24;4.63;;;4.22;;
10811;SDS011;5458;51.496;7.334;2023-04-15T13:54:49;4.75;;;4.20;;
10811;SDS011;5458;51.496;7.334;2023-04-15T13:57:15;5.68;;;4.57;;
10811;SDS011;5458;51.496;7.334;2023-04-15T13:59:41;5.53;;;4.28;;
10811;SDS011;5458;51.496;7.334;2023-04-15T14:02:08;4.93;;;4.18;;
10811;SDS011;5458;51.496;7.334;2023-04-15T14:04:33;4.55;;;4.13;;
10811;SDS011;5458;51.496;7.334;2023-04-15T14:06:59;5.50;;;4.15;;
10811;SDS011;5458;51.496;7.334;2023-04-15T14:09:25;4.82;;;4.30;;
10811;SDS011;5458;51.496;7.334;2023-04-15T14:11:50;5.03;;;4.32;;
10811;SDS011;5458;51.496;7.334;2023-04-15T14:14:16;5.20;;;4.75;;
10811;SDS011;5458;51.496;7.334;2023-04-15T14:16:42;4.75;;;4.30;;
10811;SDS011;5458;51.496;7.334;2023-04-15T14:19:08;3.95;;;3.65;;
10811;SDS011;5458;51.496;7.334;2023-04-15T14:21:33;5.75;;;3.97;;
10811;SDS011;5458;51.496;7.334;2023-04-15T14:23:59;4.20;;;3.80;;
10811;SDS011;5458;51.496;7.334;2023-04-15T14:26:24;4.28;;;3.88;;
10811;SDS011;5458;51.496;7.334;2023-04-15T14:28:50;4.53;;;4.13;;
10811;SDS011;5458;51.496;7.334;2023-04-15T14:31:16;4.95;;;4.22;;
10811;SDS011;5458;51.496;7.334;2023-04-15T14:33:42;4.10;;;3.67;;
10811;SDS011;5458;51.496;7.334;2023-04-15T14:36:08;5.63;;;4.00;;
10811;SDS011;5458;51.496;7.334;2023-04-15T14:38:34;3.88;;;3.40;;
10811;SDS011;5458;51.496;7.334;2023-04-15T14:41:04;4.30;;;3.90;;
10811;SDS011;5458;51.496;7.334;2023-04-15T14:43:30;5.97;;;4.38;;
10811;SDS011;5458;51.496;7.334;2023-04-15T14:45:56;4.55;;;3.65;;
10811;SDS011;5458;51.496;7.334;2023-04-15T14:48:21;4.25;;;3.85;;
10811;SDS011;5458;51.496;7.334;2023-04-15T14:50:47;3.55;;;3.25;;
10811;SDS011;5458;51.496;7.334;2023-04-15T14:53:13;3.90;;;3.60;;
10811;SDS011;5458;51.496;7.334;2023-04-15T14:55:38;3.97;;;3.67;;
10811;SDS011;5458;51.496;7.334;2023-04-15T14:58:05;4.20;;;3.78;;
10811;SDS011;5458;51.496;7.334;2023-04-15T15:00:32;3.55;;;3.25;;
10811;SDS011;5458;51.496;7.334;2023-04-15T15:03:13;3.70;;;3.47;;
10811;SDS011;5458;51.496;7.334;2023-04-15T15:05:40;3.97;;;3.42;;
10811;SDS011;5458;51.496;7.334;2023-04-15T15:08:06;3.60;;;3.10;;
10811;SDS011;5458;51.496;7.334;2023-04-15T15:10:33;3.97;;;3.55;;
10811;SDS011;5458;51.496;7.334;2023-04-15T15:13:00;4.90;;;4.03;;
10811;SDS011;5458;51.496;7.334;2023-04-15T15:18:19;5.93;;;5.43;;
10811;SDS011;5458;51.496;7.334;2023-04-15T15:23:42;5.38;;;4.95;;
10811;SDS011;5458;51.496;7.334;2023-04-15T15:26:07;5.50;;;4.95;;
10811;SDS011;5458;51.496;7.334;2023-04-15T15:28:33;5.45;;;4.97;;
10811;SDS011;5458;51.496;7.334;2023-04-15T15:30:59;5.55;;;5.05;;
10811;SDS011;5458;51.496;7.334;2023-04-15T15:33:25;7.18;;;6.35;;
10811;SDS011;5458;51.496;7.334;2023-04-15T15:35:50;5.57;;;5.13;;
10811;SDS011;5458;51.496;7.334;2023-04-15T15:38:16;5.97;;;5.07;;
10811;SDS011;5458;51.496;7.334;2023-04-15T15:40:41;5.25;;;4.75;;
10811;SDS011;5458;51.496;7.334;2023-04-15T15:43:07;6.93;;;5.03;;
10811;SDS011;5458;51.496;7.334;2023-04-15T15:45:33;5.57;;;5.10;;